Terminal Aerodrome Forecast
Issued by NWS Atlanta, GA

Home | Current Version | Previous Version | Text Only | Print | Product List | Glossary On
Versions: 1 2 3 4 5 6 7 8 9 10 11 12 13 14 15 16 17 18 19 20 21 22 23 24 25 26 27 28 29 30 31 32 33 34 35 36 37 38 39 40 41 42 43
000
FTUS42 KFFC 201300 AAA
TAFATL
TAF AMD
KATL 201354Z 2014/2118 08010KT P6SM SCT040
      TEMPO 2014/2016 OVC025
     FM201600 08010G15KT P6SM SCT040
     FM210000 06006KT P6SM SCT250
     FM210900 32004KT 6SM BR SCT250
     FM211400 30008KT P6SM SKC=

USA.gov is the U.S. government's official web portal to all federal, state and local government web resources and services.